Terminal Aerodrome Forecast
Issued by NWS Chicago, IL

Home | Current Version | Previous Version | Text Only | Print | Product List | Glossary Off
Versions: 1 2 3 4 5 6 7 8 9 10 11 12 13 14 15 16 17 18 19 20 21 22 23 24

209
FTUS43 KLOT 041126
TAFRFD
TAF
KRFD 041126Z 0412/0512 36014G21KT P6SM SCT018
      TEMPO 0412/0414 BKN018
     FM041700 36016G25KT P6SM BKN035
     FM050100 01010KT P6SM FEW040=

USA.gov is the U.S. government's official web portal to all federal, state and local government web resources and services.